createdAt,value
2023-01-04T00:01:22.646Z,76.61
2023-01-04T00:03:49.631Z,76.67
2023-01-04T00:06:17.171Z,76.76
2023-01-04T00:08:44.387Z,76.80
2023-01-04T00:11:23.084Z,76.66
2023-01-04T00:13:53.370Z,76.64
2023-01-04T00:16:23.099Z,76.70
2023-01-04T00:18:51.441Z,76.72
2023-01-04T00:21:30.142Z,76.75
2023-01-04T00:23:59.965Z,76.77
2023-01-04T00:26:30.250Z,76.82
2023-01-04T00:29:00.222Z,76.84
2023-01-04T00:31:28.500Z,76.89
2023-01-04T00:33:57.361Z,76.96
2023-01-04T00:36:25.740Z,77.00
2023-01-04T00:39:06.616Z,76.96
2023-01-04T00:41:58.130Z,76.92
2023-01-04T00:44:24.255Z,76.90
2023-01-04T00:46:51.186Z,76.92
2023-01-04T00:49:18.047Z,76.95
2023-01-04T00:51:44.783Z,77.05
2023-01-04T00:54:15.850Z,77.09
2023-01-04T00:56:44.909Z,77.10
2023-01-04T00:59:13.994Z,77.20
2023-01-04T01:01:41.809Z,77.27
2023-01-04T01:04:12.551Z,77.30
2023-01-04T01:06:40.172Z,77.32
2023-01-04T01:09:07.635Z,77.39
2023-01-04T01:11:36.209Z,77.50
2023-01-04T01:14:03.055Z,77.54
2023-01-04T01:16:54.900Z,77.57
2023-01-04T01:19:17.127Z,77.55
2023-01-04T01:21:43.856Z,77.56
2023-01-04T01:24:18.995Z,77.57
2023-01-04T01:26:45.834Z,77.58
2023-01-04T01:29:12.677Z,77.61
2023-01-04T01:31:40.939Z,77.63
2023-01-04T01:34:09.045Z,77.65
2023-01-04T01:36:36.183Z,77.75
2023-01-04T01:39:03.651Z,77.72
2023-01-04T01:41:33.439Z,77.82
2023-01-04T01:44:12.183Z,77.83
2023-01-04T01:46:49.411Z,77.85
2023-01-04T01:49:28.097Z,77.80
2023-01-04T01:51:57.054Z,77.71
2023-01-04T01:54:29.784Z,77.66
2023-01-04T01:56:59.593Z,77.83
2023-01-04T01:59:28.356Z,78.00
2023-01-04T02:01:55.262Z,78.23
2023-01-04T02:04:22.448Z,78.38
2023-01-04T02:06:52.674Z,78.39
2023-01-04T02:09:21.157Z,78.41
2023-01-04T02:11:48.103Z,78.49
2023-01-04T02:14:27.038Z,78.56
2023-01-04T02:17:24.835Z,78.58
2023-01-04T02:20:04.021Z,78.68
2023-01-04T02:22:49.486Z,78.54
2023-01-04T02:25:37.956Z,78.46
2023-01-04T02:28:13.705Z,78.41
2023-01-04T02:31:17.385Z,78.34
2023-01-04T02:33:55.329Z,78.32
2023-01-04T02:36:38.476Z,78.43
2023-01-04T02:39:17.558Z,78.43
2023-01-04T02:41:58.859Z,78.46
2023-01-04T02:44:52.965Z,78.49
2023-01-04T02:47:59.494Z,78.33
2023-01-04T02:50:48.166Z,78.32
2023-01-04T02:53:19.865Z,78.37
2023-01-04T02:56:04.076Z,78.43
2023-01-04T02:58:49.442Z,78.57
2023-01-04T03:01:46.371Z,78.61
2023-01-04T03:04:50.717Z,78.69
2023-01-04T03:07:45.520Z,78.79
2023-01-04T03:10:18.278Z,78.84
2023-01-04T03:12:53.940Z,78.90
2023-01-04T03:15:28.162Z,79.04
2023-01-04T03:17:57.874Z,79.09
2023-01-04T03:20:29.213Z,79.18
2023-01-04T03:23:23.541Z,79.23
2023-01-04T03:26:16.672Z,79.36
2023-01-04T03:29:04.034Z,79.45
2023-01-04T03:32:15.273Z,79.46
2023-01-04T03:35:01.160Z,79.49
2023-01-04T03:37:48.894Z,79.53
2023-01-04T03:40:50.754Z,79.64
2023-01-04T03:43:39.919Z,79.79
2023-01-04T03:46:42.948Z,79.89
2023-01-04T03:49:49.590Z,79.99
2023-01-04T03:52:17.789Z,80.05
2023-01-04T03:54:48.012Z,80.05
2023-01-04T03:57:16.369Z,80.13
2023-01-04T03:59:48.838Z,80.22
2023-01-04T04:02:18.896Z,80.29
2023-01-04T04:05:04.985Z,80.32
2023-01-04T04:07:50.565Z,80.31
2023-01-04T04:10:17.699Z,80.35
2023-01-04T04:12:44.728Z,80.37
2023-01-04T04:15:12.104Z,80.40
2023-01-04T04:17:38.939Z,80.45
2023-01-04T04:20:06.814Z,80.51
2023-01-04T04:22:33.737Z,80.56
2023-01-04T04:25:00.688Z,80.64
2023-01-04T04:27:27.577Z,80.73
2023-01-04T04:29:54.259Z,80.72
2023-01-04T04:32:21.204Z,80.72
2023-01-04T04:34:48.267Z,80.73
2023-01-04T04:37:15.116Z,80.71
2023-01-04T04:39:42.050Z,80.68
2023-01-04T04:42:09.024Z,80.64
2023-01-04T04:44:36.772Z,80.55
2023-01-04T04:47:03.915Z,80.48
2023-01-04T04:49:32.092Z,80.53
2023-01-04T04:51:58.979Z,80.58
2023-01-04T04:54:25.868Z,80.53
2023-01-04T04:56:52.734Z,80.45
2023-01-04T04:59:19.666Z,80.39
2023-01-04T05:01:47.757Z,80.41
2023-01-04T05:04:16.339Z,80.36
2023-01-04T05:06:44.158Z,80.29
2023-01-04T05:09:12.764Z,80.30
2023-01-04T05:11:59.064Z,80.27
2023-01-04T05:14:26.466Z,80.20
2023-01-04T05:16:53.773Z,80.14
2023-01-04T05:19:21.590Z,80.22
2023-01-04T05:21:48.382Z,80.16
2023-01-04T05:24:15.115Z,80.15
2023-01-04T05:26:41.990Z,80.26
2023-01-04T05:29:28.736Z,80.34
2023-01-04T05:31:55.675Z,80.35
2023-01-04T05:34:22.876Z,80.28
2023-01-04T05:36:49.806Z,80.32
2023-01-04T05:39:16.760Z,80.29
2023-01-04T05:42:02.330Z,80.25
2023-01-04T05:44:29.187Z,80.31
2023-01-04T05:46:56.807Z,80.40
2023-01-04T05:49:23.968Z,80.42
2023-01-04T05:51:50.867Z,80.43
2023-01-04T05:54:21.321Z,80.41
2023-01-04T05:56:48.618Z,80.38
2023-01-04T05:59:15.581Z,80.42
2023-01-04T06:01:42.487Z,80.53
2023-01-04T06:04:09.534Z,80.72
2023-01-04T06:06:36.814Z,80.90
2023-01-04T06:09:04.181Z,80.94
2023-01-04T06:11:31.411Z,80.99
2023-01-04T06:13:58.473Z,80.98
2023-01-04T06:16:25.721Z,80.99
2023-01-04T06:18:52.939Z,81.19
2023-01-04T06:21:20.578Z,81.33
2023-01-04T06:23:47.682Z,81.36
2023-01-04T06:26:14.764Z,81.38
2023-01-04T06:28:41.999Z,81.37
2023-01-04T06:31:11.363Z,81.21
2023-01-04T06:33:39.265Z,81.13
2023-01-04T06:36:07.321Z,81.11
2023-01-04T06:38:48.311Z,81.06
2023-01-04T06:41:16.189Z,80.98
2023-01-04T06:43:43.629Z,80.90
2023-01-04T06:46:11.067Z,80.82
2023-01-04T06:48:38.147Z,80.79
2023-01-04T06:51:05.844Z,80.73
2023-01-04T06:53:33.147Z,80.63
2023-01-04T06:56:00.291Z,80.61
2023-01-04T06:58:27.556Z,80.61
2023-01-04T07:00:56.609Z,80.59
2023-01-04T07:03:23.950Z,80.53
2023-01-04T07:05:51.772Z,80.44
2023-01-04T07:08:19.018Z,80.35
2023-01-04T07:10:46.479Z,80.30
2023-01-04T07:13:13.937Z,80.35
2023-01-04T07:15:41.824Z,80.43
2023-01-04T07:18:10.147Z,80.61
2023-01-04T07:20:37.935Z,80.85
2023-01-04T07:23:06.657Z,80.95
2023-01-04T07:25:34.806Z,80.97
2023-01-04T07:28:01.952Z,80.90
2023-01-04T07:30:29.267Z,80.73
2023-01-04T07:32:56.969Z,80.60
2023-01-04T07:35:24.232Z,80.50
2023-01-04T07:37:57.897Z,80.42
2023-01-04T07:40:28.451Z,80.33
2023-01-04T07:42:59.519Z,80.23
2023-01-04T07:45:27.164Z,80.13
2023-01-04T07:47:54.247Z,80.05
2023-01-04T07:50:21.184Z,79.97
2023-01-04T07:52:48.220Z,79.89
2023-01-04T07:55:15.251Z,79.83
2023-01-04T07:57:42.097Z,79.76
2023-01-04T08:00:11.016Z,79.67
2023-01-04T08:02:41.250Z,79.53
2023-01-04T08:05:08.799Z,79.44
2023-01-04T08:07:36.854Z,79.36
2023-01-04T08:10:04.505Z,79.27
2023-01-04T08:12:31.669Z,79.17
2023-01-04T08:14:58.812Z,79.10
2023-01-04T08:17:25.942Z,79.02
2023-01-04T08:19:52.886Z,78.91
2023-01-04T08:22:19.681Z,78.80
2023-01-04T08:24:46.601Z,78.65
2023-01-04T08:27:13.636Z,78.39
2023-01-04T08:29:40.512Z,78.16
2023-01-04T08:32:07.438Z,78.00
2023-01-04T08:34:34.868Z,77.88
2023-01-04T08:37:01.680Z,77.76
2023-01-04T08:39:32.746Z,77.65
2023-01-04T08:42:07.460Z,77.53
2023-01-04T08:44:41.690Z,77.39
2023-01-04T08:47:08.738Z,77.12
2023-01-04T08:49:35.693Z,76.97
2023-01-04T08:52:02.816Z,76.92
2023-01-04T08:54:29.851Z,76.06
2023-01-04T08:56:56.781Z,75.26
2023-01-04T08:59:23.585Z,75.26
2023-01-04T09:01:50.712Z,75.30
2023-01-04T09:04:17.705Z,75.18
2023-01-04T09:06:44.757Z,75.06
2023-01-04T09:09:11.878Z,74.89
2023-01-04T09:11:38.815Z,74.76
2023-01-04T09:14:09.099Z,74.24
2023-01-04T09:16:37.467Z,73.90
2023-01-04T09:19:07.430Z,73.71
2023-01-04T09:21:34.440Z,73.61
2023-01-04T09:24:01.852Z,73.44
2023-01-04T09:26:29.095Z,73.34
2023-01-04T09:28:56.168Z,73.05
2023-01-04T09:31:28.087Z,72.45
2023-01-04T09:36:44.300Z,72.57
2023-01-04T09:39:18.785Z,72.42
2023-01-04T09:42:05.246Z,72.18
2023-01-04T09:47:44.022Z,72.27
2023-01-04T09:50:45.068Z,72.25
2023-01-04T09:53:27.069Z,72.36
2023-01-04T09:56:01.813Z,72.03
2023-01-04T09:58:35.748Z,71.93
2023-01-04T10:01:06.257Z,71.61
2023-01-04T10:03:40.212Z,71.45
2023-01-04T10:06:12.229Z,71.32
2023-01-04T10:08:43.413Z,70.91
2023-01-04T10:11:51.043Z,70.15
2023-01-04T10:14:35.258Z,70.08
2023-01-04T10:17:35.499Z,70.17
2023-01-04T10:24:00.770Z,69.70
2023-01-04T10:26:31.507Z,69.48
2023-01-04T10:29:28.566Z,68.93
2023-01-04T10:32:02.895Z,68.61
2023-01-04T10:34:33.193Z,68.31
2023-01-04T10:37:10.976Z,68.07
2023-01-04T10:39:38.122Z,67.41
2023-01-04T10:42:30.361Z,66.90
2023-01-04T10:45:08.893Z,66.48
2023-01-04T10:47:45.474Z,66.32
2023-01-04T10:50:27.135Z,66.35
2023-01-04T10:53:06.503Z,66.36
2023-01-04T10:56:23.769Z,66.16
2023-01-04T10:58:43.798Z,66.14
2023-01-04T11:01:16.253Z,66.00
2023-01-04T11:03:53.520Z,66.06
2023-01-04T11:06:33.817Z,66.22
2023-01-04T11:09:18.360Z,66.43
2023-01-04T11:11:50.629Z,66.53
2023-01-04T11:14:18.184Z,65.95
2023-01-04T11:16:50.001Z,65.98
2023-01-04T11:19:17.522Z,65.81
2023-01-04T11:21:57.867Z,65.62
2023-01-04T11:24:32.958Z,65.40
2023-01-04T11:27:15.727Z,65.63
2023-01-04T11:30:05.296Z,65.62
2023-01-04T11:32:43.968Z,65.82
2023-01-04T11:35:11.396Z,66.12
2023-01-04T11:37:41.086Z,66.34
2023-01-04T11:40:17.348Z,66.30
2023-01-04T11:42:46.651Z,65.87
2023-01-04T11:45:21.782Z,65.40
2023-01-04T11:47:53.956Z,65.55
2023-01-04T11:50:50.751Z,65.46
2023-01-04T11:53:44.035Z,66.01
2023-01-04T11:56:23.019Z,66.45
2023-01-04T11:59:08.368Z,66.79
2023-01-04T12:01:48.014Z,67.11
2023-01-04T12:04:20.800Z,67.27
2023-01-04T12:07:06.370Z,66.82
2023-01-04T12:09:33.834Z,66.67
2023-01-04T12:12:01.189Z,66.52
2023-01-04T12:14:32.416Z,65.97
2023-01-04T12:17:22.721Z,65.81
2023-01-04T12:19:54.039Z,65.79
2023-01-04T12:22:29.955Z,65.14
2023-01-04T12:25:03.849Z,65.01
2023-01-04T12:27:31.098Z,64.94
2023-01-04T12:30:04.900Z,65.21
2023-01-04T12:32:31.911Z,65.37
2023-01-04T12:34:59.021Z,64.98
2023-01-04T12:37:49.093Z,65.05
2023-01-04T12:40:44.287Z,65.07
2023-01-04T12:43:14.312Z,65.18
2023-01-04T12:46:46.174Z,65.23
2023-01-04T12:49:25.711Z,65.71
2023-01-04T12:54:58.412Z,66.56
2023-01-04T12:57:39.327Z,66.93
2023-01-04T13:00:15.540Z,67.33
2023-01-04T13:02:51.546Z,67.66
2023-01-04T13:08:12.108Z,68.12
2023-01-04T13:10:48.550Z,68.37
2023-01-04T13:13:24.418Z,68.87
2023-01-04T13:16:19.507Z,69.23
2023-01-04T13:18:48.577Z,69.61
2023-01-04T13:21:32.196Z,69.91
2023-01-04T13:24:04.564Z,70.15
2023-01-04T13:26:31.819Z,70.25
2023-01-04T13:29:10.173Z,70.38
2023-01-04T13:31:57.849Z,70.50
2023-01-04T13:34:38.937Z,70.41
2023-01-04T13:37:08.215Z,70.46
2023-01-04T13:39:41.300Z,70.43
2023-01-04T13:43:00.429Z,70.46
2023-01-04T13:45:37.876Z,70.80
2023-01-04T13:48:10.739Z,70.97
2023-01-04T13:50:44.321Z,71.24
2023-01-04T13:53:21.412Z,71.59
2023-01-04T13:56:20.151Z,71.96
2023-01-04T13:58:47.585Z,72.41
2023-01-04T14:01:29.623Z,72.56
2023-01-04T14:04:01.567Z,72.71
2023-01-04T14:06:48.071Z,73.00
2023-01-04T14:09:28.537Z,73.41
2023-01-04T14:12:05.670Z,73.71
2023-01-04T14:15:13.811Z,73.86
2023-01-04T14:17:56.872Z,74.12
2023-01-04T14:20:23.961Z,74.26
2023-01-04T14:22:55.773Z,74.39
2023-01-04T14:25:40.861Z,74.57
2023-01-04T14:28:26.811Z,74.71
2023-01-04T14:30:55.448Z,74.99
2023-01-04T14:33:41.702Z,75.15
2023-01-04T14:36:09.031Z,75.40
2023-01-04T14:38:39.171Z,75.74
2023-01-04T14:41:20.878Z,76.12
2023-01-04T14:44:10.529Z,76.49
2023-01-04T14:46:38.244Z,76.97
2023-01-04T14:49:05.322Z,77.16
2023-01-04T14:51:37.483Z,77.33
2023-01-04T14:54:10.603Z,77.65
2023-01-04T14:56:37.975Z,77.70
2023-01-04T14:59:05.203Z,77.76
2023-01-04T15:01:33.189Z,77.75
2023-01-04T15:04:00.767Z,77.74
2023-01-04T15:06:28.390Z,77.74
2023-01-04T15:08:56.282Z,77.47
2023-01-04T15:11:24.135Z,77.30
2023-01-04T15:13:52.110Z,77.18
2023-01-04T15:16:19.539Z,77.08
2023-01-04T15:18:47.339Z,76.91
2023-01-04T15:21:14.990Z,76.87
2023-01-04T15:23:42.668Z,76.76
2023-01-04T15:26:11.762Z,76.64
2023-01-04T15:28:39.724Z,76.50
2023-01-04T15:31:12.568Z,76.39
2023-01-04T15:33:40.519Z,76.28
2023-01-04T15:36:13.139Z,76.09
2023-01-04T15:38:43.900Z,75.85
2023-01-04T15:41:35.411Z,75.63
2023-01-04T15:44:04.809Z,75.55
2023-01-04T15:46:32.895Z,75.40
2023-01-04T15:49:00.660Z,75.29
2023-01-04T15:51:29.496Z,75.22
2023-01-04T15:53:58.600Z,74.98
2023-01-04T15:56:27.348Z,74.78
2023-01-04T15:58:55.555Z,74.68
2023-01-04T16:01:24.148Z,74.63
2023-01-04T16:03:54.171Z,74.52
2023-01-04T16:06:23.011Z,74.41
2023-01-04T16:08:52.878Z,74.35
2023-01-04T16:11:24.957Z,74.32
2023-01-04T16:13:54.757Z,74.57
2023-01-04T16:16:30.968Z,74.90
2023-01-04T16:19:00.813Z,75.17
2023-01-04T16:21:31.775Z,75.44
2023-01-04T16:24:09.253Z,75.49
2023-01-04T16:26:43.020Z,75.63
2023-01-04T16:29:13.360Z,75.59
2023-01-04T16:31:45.403Z,75.59
2023-01-04T16:34:15.821Z,75.58
2023-01-04T16:36:45.878Z,75.60
2023-01-04T16:39:15.821Z,75.59
2023-01-04T16:41:44.909Z,75.56
2023-01-04T16:44:14.688Z,75.52
2023-01-04T16:46:44.243Z,75.51
2023-01-04T16:49:15.270Z,75.53
2023-01-04T16:51:49.516Z,75.50
2023-01-04T16:54:19.473Z,75.43
2023-01-04T16:56:49.963Z,75.38
2023-01-04T16:59:18.984Z,75.34
2023-01-04T17:01:57.708Z,75.35
2023-01-04T17:04:26.941Z,75.40
2023-01-04T17:06:57.797Z,75.42
2023-01-04T17:09:26.567Z,75.54
2023-01-04T17:12:46.373Z,75.65
2023-01-04T17:14:45.411Z,75.87
2023-01-04T17:17:14.267Z,75.92
2023-01-04T17:19:43.011Z,75.95
2023-01-04T17:22:11.820Z,75.94
2023-01-04T17:24:39.686Z,75.88
2023-01-04T17:27:07.471Z,75.87
2023-01-04T17:29:35.556Z,75.81
2023-01-04T17:32:03.306Z,75.77
2023-01-04T17:34:30.663Z,75.73
2023-01-04T17:36:57.963Z,75.65
2023-01-04T17:39:27.051Z,75.56
2023-01-04T17:41:54.977Z,75.55
2023-01-04T17:44:22.549Z,75.52
2023-01-04T17:46:50.060Z,75.49
2023-01-04T17:49:22.585Z,75.40
2023-01-04T17:51:52.295Z,75.40
2023-01-04T17:54:20.669Z,75.36
2023-01-04T17:56:47.837Z,75.36
2023-01-04T17:59:15.255Z,75.31
2023-01-04T18:01:42.689Z,75.30
2023-01-04T18:04:10.797Z,75.27
2023-01-04T18:06:39.277Z,75.18
2023-01-04T18:09:08.815Z,75.11
2023-01-04T18:11:38.169Z,75.01
2023-01-04T18:14:09.882Z,74.88
2023-01-04T18:17:00.387Z,74.72
2023-01-04T18:19:29.887Z,74.55
2023-01-04T18:21:58.480Z,74.47
2023-01-04T18:24:35.954Z,74.42
2023-01-04T18:27:25.210Z,74.46
2023-01-04T18:29:56.911Z,74.47
2023-01-04T18:32:27.296Z,74.41
2023-01-04T18:34:54.948Z,74.46
2023-01-04T18:37:24.419Z,74.48
2023-01-04T18:39:52.427Z,74.54
2023-01-04T18:42:20.853Z,74.56
2023-01-04T18:44:49.897Z,74.58
2023-01-04T18:47:21.828Z,74.60
2023-01-04T18:49:49.988Z,74.73
2023-01-04T18:52:18.415Z,74.89
2023-01-04T18:54:48.237Z,74.98
2023-01-04T18:57:16.977Z,75.03
2023-01-04T18:59:49.497Z,75.04
2023-01-04T19:02:19.793Z,75.08
2023-01-04T19:04:47.474Z,75.07
2023-01-04T19:07:15.645Z,75.04
2023-01-04T19:09:44.158Z,74.99
2023-01-04T19:12:12.104Z,74.95
2023-01-04T19:14:41.960Z,74.92
2023-01-04T19:17:11.220Z,74.87
2023-01-04T19:19:38.984Z,74.82
2023-01-04T19:22:07.807Z,74.81
2023-01-04T19:24:44.265Z,74.81
2023-01-04T19:27:12.348Z,74.82
2023-01-04T19:29:39.975Z,74.81
2023-01-04T19:32:07.462Z,74.74
2023-01-04T19:34:34.698Z,74.73
2023-01-04T19:37:02.364Z,74.72
2023-01-04T19:39:31.111Z,74.67
2023-01-04T19:42:00.073Z,74.65
2023-01-04T19:44:34.465Z,74.65
2023-01-04T19:47:05.545Z,74.63
2023-01-04T19:49:34.880Z,74.67
2023-01-04T19:52:04.262Z,74.71
2023-01-04T19:54:34.287Z,74.71
2023-01-04T19:57:02.177Z,74.79
2023-01-04T19:59:30.348Z,74.82
2023-01-04T20:01:59.021Z,74.86
2023-01-04T20:04:28.340Z,74.86
2023-01-04T20:06:57.765Z,74.83
2023-01-04T20:09:27.933Z,74.74
2023-01-04T20:11:56.864Z,74.77
2023-01-04T20:14:25.173Z,74.77
2023-01-04T20:16:53.283Z,74.73
2023-01-04T20:19:22.025Z,74.75
2023-01-04T20:21:51.036Z,74.77
2023-01-04T20:24:20.868Z,74.80
2023-01-04T20:26:51.290Z,74.83
2023-01-04T20:29:19.244Z,74.86
2023-01-04T20:31:48.024Z,74.82
2023-01-04T20:34:17.169Z,74.85
2023-01-04T20:36:46.848Z,74.84
2023-01-04T20:39:15.553Z,74.85
2023-01-04T20:42:03.550Z,74.82
2023-01-04T20:44:31.723Z,74.78
2023-01-04T20:46:59.251Z,74.74
2023-01-04T20:49:27.148Z,74.73
2023-01-04T20:51:55.205Z,74.71
2023-01-04T20:54:23.304Z,74.68
2023-01-04T20:56:52.868Z,74.62
2023-01-04T20:59:21.376Z,74.59
2023-01-04T21:01:50.016Z,74.57
2023-01-04T21:04:18.107Z,74.54
2023-01-04T21:06:46.125Z,74.52
2023-01-04T21:09:14.928Z,74.52
2023-01-04T21:11:44.012Z,74.53
2023-01-04T21:14:11.538Z,74.53
2023-01-04T21:16:41.917Z,74.53
2023-01-04T21:19:09.740Z,74.57
2023-01-04T21:21:39.069Z,74.59
2023-01-04T21:24:07.099Z,74.61
2023-01-04T21:26:34.864Z,74.63
2023-01-04T21:29:02.856Z,74.66
2023-01-04T21:31:31.192Z,74.74
2023-01-04T21:34:00.722Z,74.76
2023-01-04T21:36:29.103Z,74.77
2023-01-04T21:38:59.389Z,74.76
2023-01-04T21:41:28.427Z,74.72
2023-01-04T21:43:57.961Z,74.67
2023-01-04T21:46:27.369Z,74.67
2023-01-04T21:49:01.472Z,74.65
2023-01-04T21:51:31.381Z,74.64
2023-01-04T21:53:58.822Z,74.65
2023-01-04T21:56:25.964Z,74.66
2023-01-04T21:58:56.276Z,74.67
2023-01-04T22:01:31.165Z,74.62
2023-01-04T22:04:05.174Z,74.64
2023-01-04T22:06:36.966Z,74.63
2023-01-04T22:09:05.190Z,74.60
2023-01-04T22:11:32.310Z,74.54
2023-01-04T22:13:59.149Z,74.50
2023-01-04T22:16:26.236Z,74.52
2023-01-04T22:18:53.348Z,74.51
2023-01-04T22:21:26.040Z,74.49
2023-01-04T22:23:53.379Z,74.43
2023-01-04T22:26:21.064Z,74.32
2023-01-04T22:28:48.703Z,74.27
2023-01-04T22:31:16.527Z,74.21
2023-01-04T22:33:43.721Z,74.20
2023-01-04T22:36:21.152Z,74.19
2023-01-04T22:38:50.712Z,74.20
2023-01-04T22:41:20.624Z,74.19
2023-01-04T22:44:00.686Z,74.23
2023-01-04T22:46:29.725Z,74.26
2023-01-04T22:48:57.565Z,74.26
2023-01-04T22:51:28.797Z,74.25
2023-01-04T22:53:58.107Z,74.21
2023-01-04T22:56:26.185Z,74.13
2023-01-04T22:58:55.536Z,74.01
2023-01-04T23:01:25.144Z,73.95
2023-01-04T23:03:54.091Z,73.78
2023-01-04T23:06:22.137Z,73.52
2023-01-04T23:08:55.467Z,73.31
2023-01-04T23:11:23.149Z,73.10
2023-01-04T23:13:50.579Z,72.93
2023-01-04T23:16:17.771Z,72.80
2023-01-04T23:18:46.604Z,72.58
2023-01-04T23:21:15.104Z,72.32
2023-01-04T23:23:43.258Z,71.99
2023-01-04T23:26:15.119Z,71.69
2023-01-04T23:28:43.595Z,71.53
2023-01-04T23:31:13.524Z,71.51
2023-01-04T23:33:40.550Z,71.52
2023-01-04T23:36:07.593Z,71.45
2023-01-04T23:38:34.642Z,71.44
2023-01-04T23:41:01.804Z,71.28
2023-01-04T23:43:28.841Z,71.25
2023-01-04T23:45:56.601Z,71.36
2023-01-04T23:48:23.511Z,71.39
2023-01-04T23:50:57.561Z,71.42
2023-01-04T23:53:24.386Z,71.46
2023-01-04T23:56:00.677Z,71.39
2023-01-04T23:58:30.579Z,71.28
